PWSweather.com
Personal Weather Stations
Station Observations
CAPEBRETON
Mira Road, Sydney, NS

Mira RoadSydney, NS

Lat: 46.1207292, Lon: -60.1594642

Elevation: 175

Station Type: LaCrosse Weather Pro Center 2800 Series

http://pwscapebreton.weebly.com/

Latest ConditionsUpdated 4:03:23 AM GMT-04:56 Friday, Mar 27, 2015
Currently Today's Max Today's Min Today's Average
Temperature 35.6°F2.0°C 37.1°F2.8°C 35.6°F2.0°C 36.2°F2.3°C
Dew Point 33.5°F0.8°C 34.9°F1.6°C 33.5°F0.8°C 34.0°F1.1°C
Winds Calm Calm 0.9 mph NE1.4 kmh NE - 0.4 mph 0.6 kmh
Wind Gusts 1.1 mph1.8 kmh 1.8 mph2.9 kmh - -
Humidity 92% 92% 92% 92%
Pressure 29.62 in1003.0 mb 29.65 in1004.1 mb 29.60 in1002.4 mb -
Hour Temp Dew Point Humidity Winds Wind Gusts Pressure Precip Precip Rate Daily Precip Total
04:03 AM 35.6°F2.0°C 33.5°F0.8°C 92% Calm Calm 1.1 mph1.8 kmh 29.62 in1003.0 mb 0.00 in0.0 mm 0.00 in0.0 mm 0.00 in0.0 mm
03:58 AM 35.8°F2.1°C 33.7°F0.9°C 92% 0.5 mph SW0.8 kmh SW 1.1 mph1.8 kmh 29.63 in1003.4 mb 0.00 in0.0 mm 0.00 in0.0 mm 0.00 in0.0 mm
03:53 AM 35.8°F2.1°C 33.7°F0.9°C 92% 0.4 mph SE0.6 kmh SE 1.8 mph2.9 kmh 29.62 in1003.0 mb 0.00 in0.0 mm 0.00 in0.0 mm 0.00 in0.0 mm
03:48 AM 35.6°F2.0°C 33.5°F0.8°C 92% 0.4 mph WSW0.6 kmh WSW 1.8 mph2.9 kmh 29.62 in1003.0 mb 0.00 in0.0 mm 0.00 in0.0 mm 0.00 in0.0 mm
03:43 AM 35.6°F2.0°C 33.5°F0.8°C 92% 0.7 mph W1.1 kmh W 1.1 mph1.8 kmh 29.61 in1002.7 mb 0.00 in0.0 mm 0.00 in0.0 mm 0.00 in0.0 mm
03:38 AM 35.6°F2.0°C 33.5°F0.8°C 92% 0.4 mph SSE0.6 kmh SSE 1.1 mph1.8 kmh 29.60 in1002.4 mb 0.00 in0.0 mm 0.00 in0.0 mm 0.00 in0.0 mm
03:33 AM 35.6°F2.0°C 33.5°F0.8°C 92% 0.8 mph WSW1.3 kmh WSW 1.1 mph1.8 kmh 29.61 in1002.7 mb 0.00 in0.0 mm 0.00 in0.0 mm 0.00 in0.0 mm
03:28 AM 35.6°F2.0°C 33.5°F0.8°C 92% 0.3 mph S0.5 kmh S 0.9 mph1.4 kmh 29.60 in1002.4 mb 0.00 in0.0 mm 0.00 in0.0 mm 0.00 in0.0 mm
03:23 AM 35.6°F2.0°C 33.5°F0.8°C 92% 0.3 mph SSW0.5 kmh SSW 0.4 mph0.6 kmh 29.61 in1002.7 mb 0.00 in0.0 mm 0.00 in0.0 mm 0.00 in0.0 mm
03:18 AM 35.6°F2.0°C 33.5°F0.8°C 92% Calm Calm -- 29.62 in1003.0 mb 0.00 in0.0 mm 0.00 in0.0 mm 0.00 in0.0 mm
03:13 AM 35.8°F2.1°C 33.7°F0.9°C 92% Calm Calm -- 29.62 in1003.0 mb 0.00 in0.0 mm 0.00 in0.0 mm 0.00 in0.0 mm
03:08 AM 35.6°F2.0°C 33.5°F0.8°C 92% Calm Calm -- 29.62 in1003.0 mb 0.00 in0.0 mm 0.00 in0.0 mm 0.00 in0.0 mm
03:03 AM 35.8°F2.1°C 33.7°F0.9°C 92% Calm Calm -- 29.62 in1003.0 mb 0.00 in0.0 mm 0.00 in0.0 mm 0.00 in0.0 mm
02:58 AM 36.0°F2.2°C 33.8°F1.0°C 92% Calm Calm 0.9 mph1.4 kmh 29.62 in1003.0 mb 0.00 in0.0 mm 0.00 in0.0 mm 0.00 in0.0 mm
02:53 AM 36.2°F2.3°C 34.0°F1.1°C 92% Calm Calm 1.1 mph1.8 kmh 29.62 in1003.0 mb 0.00 in0.0 mm 0.00 in0.0 mm 0.00 in0.0 mm
02:48 AM 36.2°F2.3°C 34.0°F1.1°C 92% 0.2 mph NW0.3 kmh NW 1.1 mph1.8 kmh 29.63 in1003.4 mb 0.00 in0.0 mm 0.00 in0.0 mm 0.00 in0.0 mm
02:43 AM 36.2°F2.3°C 34.0°F1.1°C 92% Calm Calm 1.8 mph2.9 kmh 29.63 in1003.4 mb 0.00 in0.0 mm 0.00 in0.0 mm 0.00 in0.0 mm
02:38 AM 36.2°F2.3°C 34.0°F1.1°C 92% 0.8 mph WSW1.3 kmh WSW 1.8 mph2.9 kmh 29.63 in1003.4 mb 0.00 in0.0 mm 0.00 in0.0 mm 0.00 in0.0 mm
02:33 AM 36.2°F2.3°C 34.0°F1.1°C 92% 0.3 mph WSW0.5 kmh WSW 0.4 mph0.6 kmh 29.63 in1003.4 mb 0.00 in0.0 mm 0.00 in0.0 mm 0.00 in0.0 mm
02:28 AM 36.2°F2.3°C 34.0°F1.1°C 92% 0.2 mph WSW0.3 kmh WSW 1.1 mph1.8 kmh 29.63 in1003.4 mb 0.00 in0.0 mm 0.00 in0.0 mm 0.00 in0.0 mm
02:23 AM 36.2°F2.3°C 34.0°F1.1°C 92% 0.4 mph S0.6 kmh S 1.1 mph1.8 kmh 29.62 in1003.0 mb 0.00 in0.0 mm 0.00 in0.0 mm 0.00 in0.0 mm
02:18 AM 36.0°F2.2°C 33.8°F1.0°C 92% 0.3 mph SW0.5 kmh SW 1.1 mph1.8 kmh 29.62 in1003.0 mb 0.00 in0.0 mm 0.00 in0.0 mm 0.00 in0.0 mm
02:13 AM 36.0°F2.2°C 33.8°F1.0°C 92% 0.3 mph W0.5 kmh W 1.1 mph1.8 kmh 29.62 in1003.0 mb 0.00 in0.0 mm 0.00 in0.0 mm 0.00 in0.0 mm
02:08 AM 36.0°F2.2°C 33.8°F1.0°C 92% 0.6 mph WNW1.0 kmh WNW 1.1 mph1.8 kmh 29.62 in1003.0 mb 0.00 in0.0 mm 0.00 in0.0 mm 0.00 in0.0 mm
02:03 AM 36.0°F2.2°C 33.8°F1.0°C 92% 0.6 mph SE1.0 kmh SE 1.1 mph1.8 kmh 29.63 in1003.4 mb 0.00 in0.0 mm 0.00 in0.0 mm 0.00 in0.0 mm
01:58 AM 36.0°F2.2°C 33.8°F1.0°C 92% 0.4 mph W0.6 kmh W 0.7 mph1.1 kmh 29.63 in1003.4 mb 0.00 in0.0 mm 0.00 in0.0 mm 0.00 in0.0 mm
01:53 AM 36.2°F2.3°C 34.0°F1.1°C 92% 0.4 mph SW0.6 kmh SW 0.7 mph1.1 kmh 29.63 in1003.4 mb 0.00 in0.0 mm 0.00 in0.0 mm 0.00 in0.0 mm
01:48 AM 36.2°F2.3°C 34.0°F1.1°C 92% 0.3 mph WSW0.5 kmh WSW 0.7 mph1.1 kmh 29.63 in1003.4 mb 0.00 in0.0 mm 0.00 in0.0 mm 0.00 in0.0 mm
01:43 AM 36.2°F2.3°C 34.0°F1.1°C 92% 0.4 mph SE0.6 kmh SE 1.1 mph1.8 kmh 29.64 in1003.7 mb 0.00 in0.0 mm 0.00 in0.0 mm 0.00 in0.0 mm
01:38 AM 36.2°F2.3°C 34.0°F1.1°C 92% 0.6 mph WNW1.0 kmh WNW 1.6 mph2.6 kmh 29.64 in1003.7 mb 0.00 in0.0 mm 0.00 in0.0 mm 0.00 in0.0 mm
01:33 AM 36.2°F2.3°C 34.0°F1.1°C 92% 0.3 mph SW0.5 kmh SW 1.6 mph2.6 kmh 29.64 in1003.7 mb 0.00 in0.0 mm 0.00 in0.0 mm 0.00 in0.0 mm
01:28 AM 36.2°F2.3°C 34.0°F1.1°C 92% 0.8 mph E1.3 kmh E 1.1 mph1.8 kmh 29.65 in1004.1 mb 0.00 in0.0 mm 0.00 in0.0 mm 0.00 in0.0 mm
01:22 AM 36.2°F2.3°C 34.0°F1.1°C 92% 0.5 mph NW0.8 kmh NW 1.3 mph2.1 kmh 29.65 in1004.1 mb 0.00 in0.0 mm 0.00 in0.0 mm 0.00 in0.0 mm
01:17 AM 36.4°F2.4°C 34.2°F1.2°C 92% 0.5 mph ESE0.8 kmh ESE 1.3 mph2.1 kmh 29.65 in1004.1 mb 0.00 in0.0 mm 0.00 in0.0 mm 0.00 in0.0 mm
01:13 AM 36.2°F2.3°C 34.0°F1.1°C 92% 0.4 mph ENE0.6 kmh ENE 1.8 mph2.9 kmh 29.65 in1004.1 mb 0.00 in0.0 mm 0.00 in0.0 mm 0.00 in0.0 mm
01:07 AM 36.2°F2.3°C 34.0°F1.1°C 92% 0.7 mph E1.1 kmh E 1.8 mph2.9 kmh 29.65 in1004.1 mb 0.00 in0.0 mm 0.00 in0.0 mm 0.00 in0.0 mm
01:02 AM 36.4°F2.4°C 34.2°F1.2°C 92% 0.9 mph NE1.4 kmh NE 1.1 mph1.8 kmh 29.65 in1004.1 mb 0.00 in0.0 mm 0.00 in0.0 mm 0.00 in0.0 mm
12:57 AM 36.4°F2.4°C 34.2°F1.2°C 92% 0.4 mph SE0.6 kmh SE 1.1 mph1.8 kmh 29.64 in1003.7 mb 0.00 in0.0 mm 0.00 in0.0 mm 0.00 in0.0 mm
12:52 AM 36.4°F2.4°C 34.2°F1.2°C 92% 0.7 mph E1.1 kmh E 1.1 mph1.8 kmh 29.64 in1003.7 mb 0.00 in0.0 mm 0.00 in0.0 mm 0.00 in0.0 mm
12:47 AM 36.5°F2.5°C 34.4°F1.3°C 92% 0.6 mph ESE1.0 kmh ESE 1.8 mph2.9 kmh 29.64 in1003.7 mb 0.00 in0.0 mm 0.00 in0.0 mm 0.00 in0.0 mm
12:42 AM 36.7°F2.6°C 34.6°F1.4°C 92% 0.8 mph WNW1.3 kmh WNW 1.8 mph2.9 kmh 29.64 in1003.7 mb 0.00 in0.0 mm 0.00 in0.0 mm 0.00 in0.0 mm
12:37 AM 36.7°F2.6°C 34.6°F1.4°C 92% 0.6 mph WSW1.0 kmh WSW 1.6 mph2.6 kmh 29.64 in1003.7 mb 0.00 in0.0 mm 0.00 in0.0 mm 0.00 in0.0 mm
12:32 AM 36.7°F2.6°C 34.6°F1.4°C 92% 0.4 mph W0.6 kmh W 1.1 mph1.8 kmh 29.65 in1004.1 mb 0.00 in0.0 mm 0.00 in0.0 mm 0.00 in0.0 mm
12:27 AM 36.9°F2.7°C 34.7°F1.5°C 92% 0.5 mph SW0.8 kmh SW 1.1 mph1.8 kmh 29.65 in1004.1 mb 0.00 in0.0 mm 0.00 in0.0 mm 0.00 in0.0 mm
12:22 AM 36.9°F2.7°C 34.7°F1.5°C 92% 0.3 mph NW0.5 kmh NW 0.4 mph0.6 kmh 29.65 in1004.1 mb 0.00 in0.0 mm 0.00 in0.0 mm 0.00 in0.0 mm
12:17 AM 36.9°F2.7°C 34.7°F1.5°C 92% 0.2 mph SE0.3 kmh SE 0.9 mph1.4 kmh 29.64 in1003.7 mb 0.00 in0.0 mm 0.00 in0.0 mm 0.00 in0.0 mm
12:12 AM 36.9°F2.7°C 34.7°F1.5°C 92% 0.5 mph WSW0.8 kmh WSW 0.9 mph1.4 kmh 29.64 in1003.7 mb 0.00 in0.0 mm 0.00 in0.0 mm 0.00 in0.0 mm
12:07 AM 37.1°F2.8°C 34.9°F1.6°C 92% 0.3 mph ENE0.5 kmh ENE 1.3 mph2.1 kmh 29.65 in1004.1 mb 0.00 in0.0 mm 0.00 in0.0 mm 0.00 in0.0 mm
12:02 AM 37.1°F2.8°C 34.9°F1.6°C 92% 0.4 mph WNW0.6 kmh WNW 1.3 mph2.1 kmh 29.65 in1004.1 mb 0.00 in0.0 mm 0.00 in0.0 mm 0.00 in0.0 mm